Nordic Odyssey — 3FIF4 — position and weather

sailwx.info

Track history (hours):
 
Tides and Currents Weather Stations Pressure Air Temp Water Temp Dewpoint Dewpoint Depression Visibility Wind Speed Wind Dir Waves Ship Positions

Nordic Odyssey

Last reported at 2018-Jun-10 19:14 UTC. Time now 2018-Jun-19 02:36 UTC.
Position N 35°57' W 005°36'.
Warning: this ship's position is 8 days out of date.

Length 225 m; draft 7.3 m.

Type: Ship. MMSI: 373428000.

Date/timePositionNaut miles runAvg speedWind from/ knotsBaromVisibWave heightAir tempDewpointWater temp
2018-Jun-10 19:14N 35°57' W 005°36'311.4
2018-Jun-10 19:00N 35°58' W 005°33'510.2
2018-Jun-10 18:30N 36°00' W 005°27'5 9.1
2018-Jun-10 18:00N 36°03' W 005°22'2 4.2
2018-Jun-10 17:30N 36°04' W 005°21'2 3.3
2018-Jun-10 17:00N 36°04' W 005°19'4 8.6
2018-Jun-10 16:30N 36°05' W 005°14'1 2.3
2018-Jun-10 16:00N 36°06' W 005°15'1 2.8
2018-Jun-10 15:30N 36°07' W 005°16'3 6.1
2018-Jun-10 15:00N 36°08' W 005°13'3 5.7
2018-Jun-10 14:30N 36°09' W 005°10'0 0.2
2018-Jun-10 13:30N 36°09' W 005°10'1 2.0
2018-Jun-10 13:00N 36°08' W 005°10'2 4.1
2018-Jun-10 12:30N 36°08' W 005°08'21111.0
2018-Jun-09 17:16N 37°17' W 000°59'411.4
2018-Jun-09 16:57N 37°19' W 000°55'511.5
2018-Jun-09 16:29N 37°23' W 000°50'611.6
2018-Jun-09 16:00N 37°26' W 000°45'611.4
2018-Jun-09 15:30N 37°30' W 000°40'1211.8
2018-Jun-09 14:30N 37°39' W 000°30'612.2
2018-Jun-09 14:00N 37°44' W 000°26'612.4
2018-Jun-09 13:30N 37°49' W 000°21'612.4
2018-Jun-09 13:00N 37°54' W 000°17'612.5
2018-Jun-09 12:30N 37°60' W 000°13'612.4
2018-Jun-09 12:00N 38°05' W 000°08'712.3
2018-Jun-09 11:28N 38°10' W 000°04'13512.0
2018-Jun-09 00:16N 39°58' E 001°40'2212.0
2018-Jun-08 22:25N 40°16' E 001°58'612.4
2018-Jun-08 21:57N 40°20' E 002°02'612.3
2018-Jun-08 21:30N 40°24' E 002°07'712.0
2018-Jun-08 20:53N 40°30' E 002°13'511.7
2018-Jun-08 20:26N 40°35' E 002°17'611.4
2018-Jun-08 19:55N 40°39' E 002°22'511.7
2018-Jun-08 19:30N 40°43' E 002°26'611.8
2018-Jun-08 19:00N 40°48' E 002°31'611.6
2018-Jun-08 18:30N 40°52' E 002°35'611.4
2018-Jun-08 18:00N 40°57' E 002°40'611.1
2018-Jun-08 17:30N 41°01' E 002°45'611.2
2018-Jun-08 17:00N 41°06' E 002°49'611.3
2018-Jun-08 16:30N 41°10' E 002°54'611.5
2018-Jun-08 16:00N 41°14' E 002°58'911.6
2018-Jun-08 15:15N 41°21' E 003°06'311.6
2018-Jun-08 14:59N 41°24' E 003°08'511.2
2018-Jun-08 14:30N 41°28' E 003°12'611.7
2018-Jun-08 14:00N 41°33' E 003°17'11512.2
2018-Jun-08 04:35N 43°03' E 004°53'112.1
2018-Jun-08 04:30N 43°04' E 004°53'611.9
2018-Jun-08 03:59N 43°09' E 004°59'510.8
2018-Jun-08 03:30N 43°14' E 005°00'612.4
2018-Jun-08 03:00N 43°20' E 004°58'4 7.5
2018-Jun-08 02:30N 43°23' E 004°56'3 6.9
2018-Jun-08 02:00N 43°26' E 004°52'0 0.1
2018-Jun-08 01:09N 43°26' E 004°53'0 0.0
2018-Jun-08 00:57N 43°26' E 004°53'0 0.0
2018-Jun-08 00:27N 43°26' E 004°53'0 0.0
2018-Jun-07 23:48N 43°26' E 004°53'0 0.0
2018-Jun-07 23:30N 43°26' E 004°53'0 0.0
2018-Jun-07 23:00N 43°26' E 004°53'0 0.0
2018-Jun-07 22:30N 43°26' E 004°53'0 0.0
2018-Jun-07 22:00N 43°26' E 004°53'0 0.0
2018-Jun-07 21:30N 43°26' E 004°53'0 0.0
2018-Jun-07 21:00N 43°26' E 004°53'0 0.0
2018-Jun-07 20:30N 43°26' E 004°53'0 0.0
2018-Jun-07 19:57N 43°26' E 004°53'0 0.0
2018-Jun-07 19:30N 43°26' E 004°53'0 0.0
2018-Jun-07 19:00N 43°26' E 004°53'0 0.0
2018-Jun-07 18:30N 43°26' E 004°53'0 0.0
2018-Jun-07 18:00N 43°26' E 004°53'0 0.0
2018-Jun-07 17:30N 43°26' E 004°53'0 0.0
2018-Jun-07 17:00N 43°26' E 004°53'0 0.0
2018-Jun-07 16:30N 43°26' E 004°53'0 0.0
2018-Jun-07 15:57N 43°26' E 004°53'0 0.0
2018-Jun-07 13:15N 43°26' E 004°53'0 0.0
2018-Jun-07 12:51N 43°26' E 004°53'0 0.0
2018-Jun-07 11:57N 43°26' E 004°53'0 0.0
2018-Jun-07 10:27N 43°26' E 004°53'0 0.0
2018-Jun-07 09:33N 43°26' E 004°53'0 0.0
2018-Jun-07 09:27N 43°26' E 004°53'0 0.0
2018-Jun-07 08:57N 43°26' E 004°53'0 0.0
2018-Jun-06 06:42N 43°26' E 004°53'0 0.0
2018-Jun-06 03:54N 43°26' E 004°53'0 0.0
2018-Jun-05 23:12N 43°26' E 004°53'0 0.0
2018-Jun-05 22:09N 43°26' E 004°53'0 0.0
2018-Jun-05 22:00N 43°26' E 004°53'0 0.0
2018-Jun-05 21:09N 43°26' E 004°53'0 0.1
2018-Jun-05 20:57N 43°26' E 004°53'0 0.0
2018-Jun-05 20:30N 43°26' E 004°53'0 0.0
2018-Jun-05 19:36N 43°26' E 004°53'0 0.0
2018-Jun-05 14:15N 43°26' E 004°53'0 0.0
2018-Jun-05 13:51N 43°26' E 004°53'0 0.0
2018-Jun-05 13:30N 43°26' E 004°53'0 0.0
2018-Jun-05 12:51N 43°26' E 004°53'0 0.0
2018-Jun-05 12:30N 43°26' E 004°53'0 0.0
2018-Jun-05 12:00N 43°26' E 004°53'0 0.0
2018-Jun-05 11:30N 43°26' E 004°53'0 0.0
2018-Jun-05 10:48N 43°26' E 004°53'0 0.0
2018-Jun-05 09:36N 43°26' E 004°53'0 0.0
2018-Jun-05 09:30N 43°26' E 004°53'0 0.0
2018-Jun-05 08:51N 43°26' E 004°53'0 0.0
2018-Jun-03 21:54N 43°26' E 004°53'0 0.0
2018-Jun-03 21:30N 43°26' E 004°53'0 0.0
2018-Jun-03 20:57N 43°26' E 004°53'0 0.0
2018-Jun-03 20:30N 43°26' E 004°53'0 0.0
2018-Jun-03 20:00N 43°26' E 004°53'0 0.0
2018-Jun-03 19:30N 43°26' E 004°53'0 0.0
2018-Jun-03 18:57N 43°26' E 004°53'0 0.0
2018-Jun-03 16:57N 43°26' E 004°53'0 0.0
2018-Jun-03 16:24N 43°26' E 004°53'0 0.0
2018-Jun-03 15:57N 43°26' E 004°53'0 0.0
2018-Jun-03 15:30N 43°26' E 004°53'0 0.0
2018-Jun-03 14:09N 43°26' E 004°53'0 0.0
2018-Jun-03 13:36N 43°26' E 004°53'0 0.0
2018-Jun-03 13:27N 43°26' E 004°53'0 0.0
2018-Jun-03 13:00N 43°26' E 004°53'0 0.0
2018-Jun-03 07:54N 43°26' E 004°53'0 0.0
2018-Jun-03 07:27N 43°26' E 004°53'0 0.0
2018-Jun-03 07:00N 43°26' E 004°53'0 0.0
2018-Jun-03 06:24N 43°26' E 004°53'0 0.0
2018-Jun-03 04:36N 43°26' E 004°53'0 0.0
2018-Jun-03 04:30N 43°26' E 004°53'0 0.0
2018-Jun-03 04:00N 43°26' E 004°53'0 0.0
2018-Jun-03 02:30N 43°26' E 004°53'0 0.0
2018-Jun-03 02:00N 43°26' E 004°53'0 0.0
2018-Jun-03 01:30N 43°26' E 004°53'0 0.0
2018-Jun-02 23:33N 43°26' E 004°53'0 0.1
2018-Jun-02 23:30N 43°26' E 004°53'0 0.0
2018-Jun-02 23:00N 43°26' E 004°53'0 0.0
2018-Jun-02 22:30N 43°26' E 004°53'0 0.0
2018-Jun-02 21:06N 43°26' E 004°53'0 0.0
2018-Jun-02 20:54N 43°26' E 004°53'0 0.0
2018-Jun-02 19:02N 43°26' E 004°53'0 0.0
2018-Jun-02 18:56N 43°26' E 004°53'0 0.3
2018-Jun-02 18:30N 43°25' E 004°53'1 2.0
2018-Jun-02 18:00N 43°25' E 004°53'3 6.4
2018-Jun-02 17:30N 43°23' E 004°57'4 8.4
2018-Jun-02 17:00N 43°19' E 004°59'4 7.7
2018-Jun-02 16:29N 43°15' E 005°01'26810.4
2018-Jun-01 14:45N 39°38' E 001°31'310.9
2018-Jun-01 14:29N 39°36' E 001°29'6810.8
2018-Jun-01 08:10N 38°42' E 000°36'510.8
2018-Jun-01 07:40N 38°38' E 000°31'211.0
2018-Jun-01 07:30N 38°36' E 000°30'1311.1
2018-Jun-01 06:19N 38°26' E 000°20'611.2
2018-Jun-01 05:45N 38°21' E 000°15'311.0
2018-Jun-01 05:30N 38°18' E 000°13'611.2
2018-Jun-01 05:00N 38°14' E 000°09'611.1
2018-Jun-01 04:30N 38°09' E 000°05'611.0
2018-Jun-01 03:59N 38°05' E 000°00'510.9
2018-Jun-01 03:30N 38°01' W 000°04'810.7
2018-Jun-01 02:48N 37°55' W 000°10'310.8
2018-Jun-01 02:30N 37°52' W 000°12'610.7
2018-Jun-01 01:57N 37°47' W 000°17'510.5
2018-Jun-01 01:30N 37°44' W 000°20'510.4
2018-Jun-01 01:00N 37°40' W 000°24'510.4
2018-Jun-01 00:30N 37°35' W 000°28'510.5
2018-Jun-01 00:00N 37°31' W 000°32'611.2
2018-May-31 23:29N 37°27' W 000°38'511.3
2018-May-31 23:00N 37°24' W 000°43'611.3
2018-May-31 22:30N 37°20' W 000°48'1111.3
2018-May-31 21:32N 37°13' W 000°59'011.0
2018-May-31 21:30N 37°13' W 000°59'611.2
2018-May-31 20:56N 37°09' W 001°05'510.9
2018-May-31 20:30N 37°05' W 001°09'610.6
2018-May-31 19:54N 37°01' W 001°15'510.4
2018-May-31 19:24N 36°58' W 001°20'  
Track history (hours):
 
Tides and Currents Weather Stations Pressure Air Temp Water Temp Dewpoint Dewpoint Depression Visibility Wind Speed Wind Dir Waves Ship Positions

Nordic Odyssey

Last reported at 2018-Jun-10 19:14 UTC. Time now 2018-Jun-19 02:36 UTC.
Position N 35°57' W 005°36'.
Warning: this ship's position is 8 days out of date.

Length 225 m; draft 7.3 m.

Type: Ship. MMSI: 373428000.

Date/timePositionNaut miles runAvg speedWind from/ knotsBaromVisibWave heightAir tempDewpointWater temp
2018-Jun-10 19:14N 35°57' W 005°36'311.4
2018-Jun-10 19:00N 35°58' W 005°33'510.2
2018-Jun-10 18:30N 36°00' W 005°27'5 9.1
2018-Jun-10 18:00N 36°03' W 005°22'2 4.2
2018-Jun-10 17:30N 36°04' W 005°21'2 3.3
2018-Jun-10 17:00N 36°04' W 005°19'4 8.6
2018-Jun-10 16:30N 36°05' W 005°14'1 2.3
2018-Jun-10 16:00N 36°06' W 005°15'1 2.8
2018-Jun-10 15:30N 36°07' W 005°16'3 6.1
2018-Jun-10 15:00N 36°08' W 005°13'3 5.7
2018-Jun-10 14:30N 36°09' W 005°10'0 0.2
2018-Jun-10 13:30N 36°09' W 005°10'1 2.0
2018-Jun-10 13:00N 36°08' W 005°10'2 4.1
2018-Jun-10 12:30N 36°08' W 005°08'21111.0
2018-Jun-09 17:16N 37°17' W 000°59'411.4
2018-Jun-09 16:57N 37°19' W 000°55'511.5
2018-Jun-09 16:29N 37°23' W 000°50'611.6
2018-Jun-09 16:00N 37°26' W 000°45'611.4
2018-Jun-09 15:30N 37°30' W 000°40'1211.8
2018-Jun-09 14:30N 37°39' W 000°30'612.2
2018-Jun-09 14:00N 37°44' W 000°26'612.4
2018-Jun-09 13:30N 37°49' W 000°21'612.4
2018-Jun-09 13:00N 37°54' W 000°17'612.5
2018-Jun-09 12:30N 37°60' W 000°13'612.4
2018-Jun-09 12:00N 38°05' W 000°08'712.3
2018-Jun-09 11:28N 38°10' W 000°04'13512.0
2018-Jun-09 00:16N 39°58' E 001°40'2212.0
2018-Jun-08 22:25N 40°16' E 001°58'612.4
2018-Jun-08 21:57N 40°20' E 002°02'612.3
2018-Jun-08 21:30N 40°24' E 002°07'712.0
2018-Jun-08 20:53N 40°30' E 002°13'511.7
2018-Jun-08 20:26N 40°35' E 002°17'611.4
2018-Jun-08 19:55N 40°39' E 002°22'511.7
2018-Jun-08 19:30N 40°43' E 002°26'611.8
2018-Jun-08 19:00N 40°48' E 002°31'611.6
2018-Jun-08 18:30N 40°52' E 002°35'611.4
2018-Jun-08 18:00N 40°57' E 002°40'611.1
2018-Jun-08 17:30N 41°01' E 002°45'611.2
2018-Jun-08 17:00N 41°06' E 002°49'611.3
2018-Jun-08 16:30N 41°10' E 002°54'611.5
2018-Jun-08 16:00N 41°14' E 002°58'911.6
2018-Jun-08 15:15N 41°21' E 003°06'311.6
2018-Jun-08 14:59N 41°24' E 003°08'511.2
2018-Jun-08 14:30N 41°28' E 003°12'611.7
2018-Jun-08 14:00N 41°33' E 003°17'11512.2
2018-Jun-08 04:35N 43°03' E 004°53'112.1
2018-Jun-08 04:30N 43°04' E 004°53'611.9
2018-Jun-08 03:59N 43°09' E 004°59'510.8
2018-Jun-08 03:30N 43°14' E 005°00'612.4
2018-Jun-08 03:00N 43°20' E 004°58'4 7.5
2018-Jun-08 02:30N 43°23' E 004°56'3 6.9
2018-Jun-08 02:00N 43°26' E 004°52'0 0.1
2018-Jun-08 01:09N 43°26' E 004°53'0 0.0
2018-Jun-08 00:57N 43°26' E 004°53'0 0.0
2018-Jun-08 00:27N 43°26' E 004°53'0 0.0
2018-Jun-07 23:48N 43°26' E 004°53'0 0.0
2018-Jun-07 23:30N 43°26' E 004°53'0 0.0
2018-Jun-07 23:00N 43°26' E 004°53'0 0.0
2018-Jun-07 22:30N 43°26' E 004°53'0 0.0
2018-Jun-07 22:00N 43°26' E 004°53'0 0.0
2018-Jun-07 21:30N 43°26' E 004°53'0 0.0
2018-Jun-07 21:00N 43°26' E 004°53'0 0.0
2018-Jun-07 20:30N 43°26' E 004°53'0 0.0
2018-Jun-07 19:57N 43°26' E 004°53'0 0.0
2018-Jun-07 19:30N 43°26' E 004°53'0 0.0
2018-Jun-07 19:00N 43°26' E 004°53'0 0.0
2018-Jun-07 18:30N 43°26' E 004°53'0 0.0
2018-Jun-07 18:00N 43°26' E 004°53'0 0.0
2018-Jun-07 17:30N 43°26' E 004°53'0 0.0
2018-Jun-07 17:00N 43°26' E 004°53'0 0.0
2018-Jun-07 16:30N 43°26' E 004°53'0 0.0
2018-Jun-07 15:57N 43°26' E 004°53'0 0.0
2018-Jun-07 13:15N 43°26' E 004°53'0 0.0
2018-Jun-07 12:51N 43°26' E 004°53'0 0.0
2018-Jun-07 11:57N 43°26' E 004°53'0 0.0
2018-Jun-07 10:27N 43°26' E 004°53'0 0.0
2018-Jun-07 09:33N 43°26' E 004°53'0 0.0
2018-Jun-07 09:27N 43°26' E 004°53'0 0.0
2018-Jun-07 08:57N 43°26' E 004°53'0 0.0
2018-Jun-06 06:42N 43°26' E 004°53'0 0.0
2018-Jun-06 03:54N 43°26' E 004°53'0 0.0
2018-Jun-05 23:12N 43°26' E 004°53'0 0.0
2018-Jun-05 22:09N 43°26' E 004°53'0 0.0
2018-Jun-05 22:00N 43°26' E 004°53'0 0.0
2018-Jun-05 21:09N 43°26' E 004°53'0 0.1
2018-Jun-05 20:57N 43°26' E 004°53'0 0.0
2018-Jun-05 20:30N 43°26' E 004°53'0 0.0
2018-Jun-05 19:36N 43°26' E 004°53'0 0.0
2018-Jun-05 14:15N 43°26' E 004°53'0 0.0
2018-Jun-05 13:51N 43°26' E 004°53'0 0.0
2018-Jun-05 13:30N 43°26' E 004°53'0 0.0
2018-Jun-05 12:51N 43°26' E 004°53'0 0.0
2018-Jun-05 12:30N 43°26' E 004°53'0 0.0
2018-Jun-05 12:00N 43°26' E 004°53'0 0.0
2018-Jun-05 11:30N 43°26' E 004°53'0 0.0
2018-Jun-05 10:48N 43°26' E 004°53'0 0.0
2018-Jun-05 09:36N 43°26' E 004°53'0 0.0
2018-Jun-05 09:30N 43°26' E 004°53'0 0.0
2018-Jun-05 08:51N 43°26' E 004°53'0 0.0
2018-Jun-03 21:54N 43°26' E 004°53'0 0.0
2018-Jun-03 21:30N 43°26' E 004°53'0 0.0
2018-Jun-03 20:57N 43°26' E 004°53'0 0.0
2018-Jun-03 20:30N 43°26' E 004°53'0 0.0
2018-Jun-03 20:00N 43°26' E 004°53'0 0.0
2018-Jun-03 19:30N 43°26' E 004°53'0 0.0
2018-Jun-03 18:57N 43°26' E 004°53'0 0.0
2018-Jun-03 16:57N 43°26' E 004°53'0 0.0
2018-Jun-03 16:24N 43°26' E 004°53'0 0.0
2018-Jun-03 15:57N 43°26' E 004°53'0 0.0
2018-Jun-03 15:30N 43°26' E 004°53'0 0.0
2018-Jun-03 14:09N 43°26' E 004°53'0 0.0
2018-Jun-03 13:36N 43°26' E 004°53'0 0.0
2018-Jun-03 13:27N 43°26' E 004°53'0 0.0
2018-Jun-03 13:00N 43°26' E 004°53'0 0.0
2018-Jun-03 07:54N 43°26' E 004°53'0 0.0
2018-Jun-03 07:27N 43°26' E 004°53'0 0.0
2018-Jun-03 07:00N 43°26' E 004°53'0 0.0
2018-Jun-03 06:24N 43°26' E 004°53'0 0.0
2018-Jun-03 04:36N 43°26' E 004°53'0 0.0
2018-Jun-03 04:30N 43°26' E 004°53'0 0.0
2018-Jun-03 04:00N 43°26' E 004°53'0 0.0
2018-Jun-03 02:30N 43°26' E 004°53'0 0.0
2018-Jun-03 02:00N 43°26' E 004°53'0 0.0
2018-Jun-03 01:30N 43°26' E 004°53'0 0.0
2018-Jun-02 23:33N 43°26' E 004°53'0 0.1
2018-Jun-02 23:30N 43°26' E 004°53'0 0.0
2018-Jun-02 23:00N 43°26' E 004°53'0 0.0
2018-Jun-02 22:30N 43°26' E 004°53'0 0.0
2018-Jun-02 21:06N 43°26' E 004°53'0 0.0
2018-Jun-02 20:54N 43°26' E 004°53'0 0.0
2018-Jun-02 19:02N 43°26' E 004°53'0 0.0
2018-Jun-02 18:56N 43°26' E 004°53'0 0.3
2018-Jun-02 18:30N 43°25' E 004°53'1 2.0
2018-Jun-02 18:00N 43°25' E 004°53'3 6.4
2018-Jun-02 17:30N 43°23' E 004°57'4 8.4
2018-Jun-02 17:00N 43°19' E 004°59'4 7.7
2018-Jun-02 16:29N 43°15' E 005°01'26810.4
2018-Jun-01 14:45N 39°38' E 001°31'310.9
2018-Jun-01 14:29N 39°36' E 001°29'6810.8
2018-Jun-01 08:10N 38°42' E 000°36'510.8
2018-Jun-01 07:40N 38°38' E 000°31'211.0
2018-Jun-01 07:30N 38°36' E 000°30'1311.1
2018-Jun-01 06:19N 38°26' E 000°20'611.2
2018-Jun-01 05:45N 38°21' E 000°15'311.0
2018-Jun-01 05:30N 38°18' E 000°13'611.2
2018-Jun-01 05:00N 38°14' E 000°09'611.1
2018-Jun-01 04:30N 38°09' E 000°05'611.0
2018-Jun-01 03:59N 38°05' E 000°00'510.9
2018-Jun-01 03:30N 38°01' W 000°04'810.7
2018-Jun-01 02:48N 37°55' W 000°10'310.8
2018-Jun-01 02:30N 37°52' W 000°12'610.7
2018-Jun-01 01:57N 37°47' W 000°17'510.5
2018-Jun-01 01:30N 37°44' W 000°20'510.4
2018-Jun-01 01:00N 37°40' W 000°24'510.4
2018-Jun-01 00:30N 37°35' W 000°28'510.5
2018-Jun-01 00:00N 37°31' W 000°32'611.2
2018-May-31 23:29N 37°27' W 000°38'511.3
2018-May-31 23:00N 37°24' W 000°43'611.3
2018-May-31 22:30N 37°20' W 000°48'1111.3
2018-May-31 21:32N 37°13' W 000°59'011.0
2018-May-31 21:30N 37°13' W 000°59'611.2
2018-May-31 20:56N 37°09' W 001°05'510.9
2018-May-31 20:30N 37°05' W 001°09'610.6
2018-May-31 19:54N 37°01' W 001°15'510.4
2018-May-31 19:24N 36°58' W 001°20'  

Dump ship's entire track history